createdAt,value
2019-03-30T00:00:40.293Z,0.00
2019-03-30T00:01:40.283Z,0.00
2019-03-30T00:02:40.295Z,0.00
2019-03-30T00:03:40.266Z,0.00
2019-03-30T00:04:40.256Z,0.00
2019-03-30T00:05:40.240Z,0.00
2019-03-30T00:06:40.227Z,0.00
2019-03-30T00:07:40.241Z,0.00
2019-03-30T00:08:40.210Z,0.00
2019-03-30T00:09:40.195Z,0.00
2019-03-30T00:10:40.186Z,0.00
2019-03-30T00:11:40.181Z,0.00
2019-03-30T00:12:40.165Z,0.00
2019-03-30T00:13:40.161Z,0.00
2019-03-30T00:14:40.147Z,0.00
2019-03-30T00:15:40.138Z,0.00
2019-03-30T00:16:40.136Z,0.00
2019-03-30T00:17:40.108Z,0.00
2019-03-30T00:18:41.446Z,0.00
2019-03-30T00:19:40.094Z,0.00
2019-03-30T00:20:40.078Z,0.00
2019-03-30T00:21:40.069Z,0.00
2019-03-30T00:22:40.058Z,0.00
2019-03-30T00:23:40.059Z,0.00
2019-03-30T00:24:40.059Z,0.00
2019-03-30T00:25:40.037Z,0.00
2019-03-30T00:26:40.016Z,0.00
2019-03-30T00:27:40.008Z,0.00
2019-03-30T00:28:40.010Z,0.00
2019-03-30T00:29:40.036Z,0.00
2019-03-30T00:30:39.976Z,0.00
2019-03-30T00:31:39.965Z,0.00
2019-03-30T00:32:39.958Z,0.00
2019-03-30T00:33:39.965Z,0.00
2019-03-30T00:34:39.933Z,0.00
2019-03-30T00:35:39.919Z,0.00
2019-03-30T00:36:39.908Z,0.00
2019-03-30T00:37:39.893Z,0.00
2019-03-30T00:38:39.925Z,0.00
2019-03-30T00:39:39.878Z,0.00
2019-03-30T00:40:39.866Z,0.00
2019-03-30T00:41:39.853Z,0.00
2019-03-30T00:42:39.858Z,0.00
2019-03-30T00:43:39.849Z,0.00
2019-03-30T00:44:39.822Z,0.00
2019-03-30T00:45:39.810Z,0.00
2019-03-30T00:46:39.799Z,0.00
2019-03-30T00:47:39.791Z,0.00
2019-03-30T00:48:39.798Z,0.00
2019-03-30T00:49:48.943Z,0.00
2019-03-30T00:50:40.759Z,0.00
2019-03-30T00:51:39.750Z,0.00
2019-03-30T00:52:39.727Z,0.00
2019-03-30T00:53:39.750Z,0.00
2019-03-30T00:54:39.750Z,0.00
2019-03-30T00:55:39.699Z,0.00
2019-03-30T00:56:39.692Z,0.00
2019-03-30T00:57:39.687Z,0.00
2019-03-30T00:58:39.685Z,0.00
2019-03-30T00:59:39.663Z,0.00
2019-03-30T01:00:39.647Z,0.00
2019-03-30T01:01:39.638Z,0.00
2019-03-30T01:02:39.625Z,0.00
2019-03-30T01:03:39.646Z,0.00
2019-03-30T01:04:39.608Z,0.00
2019-03-30T01:05:39.607Z,0.00
2019-03-30T01:06:39.584Z,0.00
2019-03-30T01:07:39.578Z,0.00
2019-03-30T01:08:39.582Z,0.00
2019-03-30T01:09:39.551Z,0.00
2019-03-30T01:10:39.541Z,0.00
2019-03-30T01:11:39.525Z,0.00
2019-03-30T01:12:39.527Z,0.00
2019-03-30T01:13:39.522Z,0.00
2019-03-30T01:14:39.494Z,0.00
2019-03-30T01:15:39.485Z,0.00
2019-03-30T01:16:39.468Z,0.00
2019-03-30T01:17:39.463Z,0.00
2019-03-30T01:18:39.654Z,0.00
2019-03-30T01:19:39.437Z,0.00
2019-03-30T01:20:39.430Z,0.00
2019-03-30T01:21:39.424Z,0.00
2019-03-30T01:22:39.413Z,0.00
2019-03-30T01:23:39.402Z,0.00
2019-03-30T01:24:39.408Z,0.00
2019-03-30T01:25:39.376Z,0.00
2019-03-30T01:26:39.374Z,0.00
2019-03-30T01:27:39.357Z,0.00
2019-03-30T01:28:39.345Z,0.00
2019-03-30T01:29:39.342Z,0.00
2019-03-30T01:30:48.662Z,0.00
2019-03-30T01:31:47.709Z,0.00
2019-03-30T01:32:49.713Z,0.00
2019-03-30T01:33:48.729Z,0.00
2019-03-30T01:35:55.832Z,0.00
2019-03-30T01:36:55.817Z,0.00
2019-03-30T01:38:05.046Z,0.00
2019-03-30T01:38:55.791Z,0.00
2019-03-30T01:40:06.579Z,0.00
2019-03-30T01:41:05.092Z,0.00
2019-03-30T01:42:05.119Z,0.00
2019-03-30T01:43:06.133Z,0.00
2019-03-30T01:44:04.657Z,0.00
2019-03-30T01:44:55.730Z,0.00
2019-03-30T01:45:55.724Z,0.00
2019-03-30T01:46:55.707Z,0.00
2019-03-30T01:47:55.697Z,0.00
2019-03-30T01:48:55.690Z,0.00
2019-03-30T01:49:55.681Z,0.00
2019-03-30T01:50:55.671Z,0.00
2019-03-30T01:51:55.662Z,0.00
2019-03-30T01:52:55.639Z,0.00
2019-03-30T01:53:55.636Z,0.00
2019-03-30T01:54:55.633Z,0.00
2019-03-30T01:55:55.608Z,0.00
2019-03-30T01:56:55.602Z,0.00
2019-03-30T01:57:55.589Z,0.00
2019-03-30T01:58:55.580Z,0.00
2019-03-30T01:59:55.581Z,0.00
2019-03-30T02:00:55.566Z,0.00
2019-03-30T02:01:55.549Z,0.00
2019-03-30T02:02:55.548Z,0.00
2019-03-30T02:03:55.522Z,0.00
2019-03-30T02:04:55.537Z,0.00
2019-03-30T02:05:55.498Z,0.00
2019-03-30T02:06:55.511Z,0.00
2019-03-30T02:07:55.485Z,0.00
2019-03-30T02:08:55.474Z,0.00
2019-03-30T02:09:55.484Z,0.00
2019-03-30T02:11:03.175Z,0.00
2019-03-30T02:12:04.691Z,0.00
2019-03-30T02:12:55.427Z,0.00
2019-03-30T02:13:55.430Z,0.00
2019-03-30T02:14:55.419Z,0.00
2019-03-30T02:15:55.389Z,0.00
2019-03-30T02:16:55.380Z,0.00
2019-03-30T02:17:55.394Z,0.00
2019-03-30T02:18:55.357Z,0.00
2019-03-30T02:19:55.410Z,0.00
2019-03-30T02:20:55.335Z,0.00
2019-03-30T02:21:55.330Z,0.00
2019-03-30T02:22:55.321Z,0.00
2019-03-30T02:23:55.305Z,0.00
2019-03-30T02:24:55.307Z,0.00
2019-03-30T02:25:55.278Z,0.00
2019-03-30T02:26:55.273Z,0.00
2019-03-30T02:27:55.264Z,0.00
2019-03-30T02:28:55.263Z,0.00
2019-03-30T02:29:55.256Z,0.00
2019-03-30T02:30:55.231Z,0.00
2019-03-30T02:31:55.220Z,0.00
2019-03-30T02:32:55.211Z,0.00
2019-03-30T02:33:55.196Z,0.00
2019-03-30T02:34:55.211Z,0.00
2019-03-30T02:35:55.174Z,0.00
2019-03-30T02:36:55.177Z,0.00
2019-03-30T02:37:55.160Z,0.00
2019-03-30T02:38:55.150Z,0.00
2019-03-30T02:39:55.143Z,0.00
2019-03-30T02:40:55.119Z,0.00
2019-03-30T02:41:55.113Z,0.00
2019-03-30T02:42:55.095Z,0.00
2019-03-30T02:43:55.089Z,0.00
2019-03-30T02:44:55.105Z,0.00
2019-03-30T02:45:55.067Z,0.00
2019-03-30T02:46:55.057Z,0.00
2019-03-30T02:47:55.041Z,0.00
2019-03-30T02:48:55.029Z,0.00
2019-03-30T02:49:55.019Z,0.00
2019-03-30T02:50:55.035Z,0.00
2019-03-30T02:51:54.998Z,0.00
2019-03-30T02:52:55.000Z,0.00
2019-03-30T02:53:54.988Z,0.00
2019-03-30T02:54:54.970Z,0.00
2019-03-30T02:55:54.977Z,0.00
2019-03-30T02:56:54.952Z,0.00
2019-03-30T02:57:54.954Z,0.00
2019-03-30T02:58:54.934Z,0.00
2019-03-30T02:59:54.938Z,0.00
2019-03-30T03:00:54.917Z,0.00
2019-03-30T03:01:54.895Z,0.00
2019-03-30T03:02:54.885Z,0.00
2019-03-30T03:03:54.870Z,0.00
2019-03-30T03:04:54.869Z,0.00
2019-03-30T03:05:54.865Z,0.00
2019-03-30T03:06:54.841Z,0.00
2019-03-30T03:07:54.830Z,0.00
2019-03-30T03:08:54.824Z,0.00
2019-03-30T03:09:54.808Z,0.00
2019-03-30T03:10:54.815Z,0.00
2019-03-30T03:11:54.784Z,0.00
2019-03-30T03:12:54.781Z,0.00
2019-03-30T03:13:54.756Z,0.00
2019-03-30T03:14:54.763Z,0.00
2019-03-30T03:15:54.743Z,0.00
2019-03-30T03:16:54.859Z,0.00
2019-03-30T03:17:54.718Z,0.00
2019-03-30T03:18:54.727Z,0.00
2019-03-30T03:19:54.691Z,0.00
2019-03-30T03:21:07.248Z,0.00
2019-03-30T03:21:55.667Z,0.00
2019-03-30T03:22:54.658Z,0.00
2019-03-30T03:23:54.657Z,0.00
2019-03-30T03:24:54.647Z,0.00
2019-03-30T03:25:54.651Z,0.00
2019-03-30T03:26:54.625Z,0.00
2019-03-30T03:27:54.629Z,0.00
2019-03-30T03:28:54.600Z,0.00
2019-03-30T03:29:54.588Z,0.00
2019-03-30T03:30:54.595Z,0.00
2019-03-30T03:31:54.570Z,0.00
2019-03-30T03:32:54.560Z,0.00
2019-03-30T03:33:54.546Z,0.00
2019-03-30T03:34:54.596Z,0.00
2019-03-30T03:35:54.532Z,0.00
2019-03-30T03:36:54.513Z,0.00
2019-03-30T03:37:54.501Z,0.00
2019-03-30T03:38:54.494Z,0.00
2019-03-30T03:39:54.478Z,0.00
2019-03-30T03:40:54.477Z,0.00
2019-03-30T03:41:54.456Z,0.00
2019-03-30T03:42:54.444Z,0.00
2019-03-30T03:43:54.433Z,0.00
2019-03-30T03:44:54.441Z,0.00
2019-03-30T03:45:54.425Z,0.00
2019-03-30T03:46:54.398Z,0.00
2019-03-30T03:47:54.387Z,0.00
2019-03-30T03:48:54.380Z,0.00
2019-03-30T03:49:54.370Z,0.00
2019-03-30T03:50:54.381Z,0.00
2019-03-30T03:51:54.343Z,0.00
2019-03-30T03:52:54.333Z,0.00
2019-03-30T03:53:54.328Z,0.00
2019-03-30T03:54:54.319Z,0.00
2019-03-30T03:55:54.318Z,0.00
2019-03-30T03:56:54.310Z,0.00
2019-03-30T03:57:54.283Z,0.00
2019-03-30T03:58:54.272Z,0.00
2019-03-30T03:59:54.259Z,0.00
2019-03-30T04:00:54.252Z,0.00
2019-03-30T04:01:54.252Z,0.00
2019-03-30T04:02:54.225Z,0.00
2019-03-30T04:03:54.211Z,0.00
2019-03-30T04:04:54.204Z,0.00
2019-03-30T04:05:54.206Z,0.00
2019-03-30T04:06:54.195Z,0.00
2019-03-30T04:07:54.167Z,0.00
2019-03-30T04:08:54.222Z,0.00
2019-03-30T04:09:54.150Z,0.00
2019-03-30T04:10:54.141Z,0.00
2019-03-30T04:11:54.159Z,0.00
2019-03-30T04:12:54.138Z,0.00
2019-03-30T04:13:54.108Z,0.00
2019-03-30T04:14:54.097Z,0.00
2019-03-30T04:15:54.101Z,0.00
2019-03-30T04:16:54.094Z,0.00
2019-03-30T04:17:54.069Z,0.00
2019-03-30T04:18:54.063Z,0.00
2019-03-30T04:19:54.059Z,0.00
2019-03-30T04:20:54.033Z,0.00
2019-03-30T04:21:54.054Z,0.00
2019-03-30T04:22:54.014Z,0.00
2019-03-30T04:23:54.543Z,0.00
2019-03-30T04:25:03.223Z,0.00
2019-03-30T04:25:53.967Z,0.00
2019-03-30T04:26:53.971Z,0.00
2019-03-30T04:27:53.945Z,0.00
2019-03-30T04:28:53.935Z,0.00
2019-03-30T04:29:53.940Z,0.00
2019-03-30T04:30:53.916Z,0.00
2019-03-30T04:31:53.912Z,0.00
2019-03-30T04:32:53.893Z,0.00
2019-03-30T04:33:53.885Z,0.00
2019-03-30T04:34:53.871Z,0.00
2019-03-30T04:35:53.859Z,0.00
2019-03-30T04:36:53.861Z,0.00
2019-03-30T04:37:53.838Z,0.00
2019-03-30T04:38:53.827Z,0.00
2019-03-30T04:39:53.818Z,0.00
2019-03-30T04:40:53.818Z,0.00
2019-03-30T04:41:53.801Z,0.00
2019-03-30T04:42:53.784Z,0.00
2019-03-30T04:43:53.771Z,0.00
2019-03-30T04:44:53.762Z,0.00
2019-03-30T04:45:53.752Z,0.00
2019-03-30T04:46:53.750Z,0.00
2019-03-30T04:47:53.728Z,0.00
2019-03-30T04:48:53.719Z,0.00
2019-03-30T04:49:53.706Z,0.00
2019-03-30T04:50:53.695Z,5.62
2019-03-30T04:51:57.777Z,5.62
2019-03-30T04:52:53.674Z,5.62
2019-03-30T04:53:53.662Z,5.62
2019-03-30T04:54:53.654Z,5.62
2019-03-30T04:55:53.642Z,5.62
2019-03-30T04:56:53.643Z,5.62
2019-03-30T04:57:53.619Z,5.62
2019-03-30T04:58:53.610Z,11.25
2019-03-30T04:59:53.598Z,11.25
2019-03-30T05:00:53.590Z,11.25
2019-03-30T05:01:53.589Z,11.25
2019-03-30T05:02:53.565Z,11.25
2019-03-30T05:03:53.554Z,11.25
2019-03-30T05:04:53.545Z,16.88
2019-03-30T05:05:53.531Z,16.88
2019-03-30T05:06:53.538Z,16.88
2019-03-30T05:07:53.517Z,16.88
2019-03-30T05:08:53.500Z,16.88
2019-03-30T05:09:53.489Z,22.50
2019-03-30T05:10:53.480Z,22.50
2019-03-30T05:11:53.482Z,22.50
2019-03-30T05:12:53.457Z,22.50
2019-03-30T05:13:53.449Z,28.12
2019-03-30T05:14:53.435Z,28.12
2019-03-30T05:15:53.423Z,28.12
2019-03-30T05:16:53.421Z,28.12
2019-03-30T05:17:53.406Z,33.75
2019-03-30T05:18:53.390Z,33.75
2019-03-30T05:19:53.380Z,33.75
2019-03-30T05:20:53.369Z,39.38
2019-03-30T05:21:53.369Z,39.38
2019-03-30T05:22:53.348Z,39.38
2019-03-30T05:23:53.337Z,39.38
2019-03-30T05:24:53.327Z,45.00
2019-03-30T05:25:53.315Z,45.00
2019-03-30T05:26:53.331Z,50.62
2019-03-30T05:27:53.294Z,50.62
2019-03-30T05:28:53.284Z,50.62
2019-03-30T05:29:53.272Z,50.62
2019-03-30T05:30:53.261Z,50.62
2019-03-30T05:31:53.250Z,50.62
2019-03-30T05:33:05.125Z,50.62
2019-03-30T05:33:54.226Z,56.25
2019-03-30T05:34:53.216Z,56.25
2019-03-30T05:35:53.206Z,61.88
2019-03-30T05:36:53.196Z,61.88
2019-03-30T05:37:53.195Z,61.88
2019-03-30T05:38:53.177Z,61.88
2019-03-30T05:39:53.168Z,61.88
2019-03-30T05:40:53.151Z,61.88
2019-03-30T05:41:53.143Z,61.88
2019-03-30T05:42:53.139Z,61.88
2019-03-30T05:43:53.121Z,67.50
2019-03-30T05:44:53.112Z,67.50
2019-03-30T05:45:53.100Z,73.12
2019-03-30T05:46:53.093Z,78.75
2019-03-30T05:47:53.085Z,84.38
2019-03-30T05:48:53.064Z,90.00
2019-03-30T05:49:53.054Z,95.62
2019-03-30T05:50:53.043Z,101.25
2019-03-30T05:51:53.034Z,106.88
2019-03-30T05:52:53.033Z,106.88
2019-03-30T05:53:53.012Z,112.50
2019-03-30T05:54:53.003Z,123.75
2019-03-30T05:55:52.990Z,129.38
2019-03-30T05:56:52.978Z,135.00
2019-03-30T05:57:52.978Z,146.25
2019-03-30T05:58:52.959Z,157.50
2019-03-30T05:59:55.668Z,163.12
2019-03-30T06:00:52.936Z,146.25
2019-03-30T06:01:52.922Z,180.00
2019-03-30T06:02:52.924Z,191.25
2019-03-30T06:03:52.904Z,191.25
2019-03-30T06:04:52.893Z,196.88
2019-03-30T06:05:52.885Z,191.25
2019-03-30T06:06:52.869Z,185.62
2019-03-30T06:07:52.861Z,191.25
2019-03-30T06:08:52.861Z,196.88
2019-03-30T06:09:52.836Z,196.88
2019-03-30T06:10:52.825Z,202.50
2019-03-30T06:11:52.816Z,202.50
2019-03-30T06:12:52.805Z,202.50
2019-03-30T06:13:52.800Z,202.50
2019-03-30T06:14:52.780Z,208.12
2019-03-30T06:15:52.784Z,219.38
2019-03-30T06:16:52.848Z,247.50
2019-03-30T06:17:52.750Z,253.12
2019-03-30T06:18:52.749Z,270.00
2019-03-30T06:19:52.727Z,253.12
2019-03-30T06:20:52.716Z,275.62
2019-03-30T06:21:52.705Z,292.50
2019-03-30T06:22:52.693Z,292.50
2019-03-30T06:23:52.691Z,298.12
2019-03-30T06:24:52.674Z,303.75
2019-03-30T06:25:52.661Z,309.38
2019-03-30T06:26:52.650Z,315.00
2019-03-30T06:27:52.639Z,320.62
2019-03-30T06:28:52.635Z,326.25
2019-03-30T06:29:52.617Z,326.25
2019-03-30T06:30:52.606Z,331.88
2019-03-30T06:31:52.597Z,337.50
2019-03-30T06:32:52.586Z,343.12
2019-03-30T06:33:52.587Z,354.38
2019-03-30T06:34:52.580Z,348.75
2019-03-30T06:35:52.554Z,360.00
2019-03-30T06:36:52.541Z,365.62
2019-03-30T06:37:52.535Z,365.62
2019-03-30T06:38:52.536Z,365.62
2019-03-30T06:39:52.507Z,354.38
2019-03-30T06:40:52.497Z,331.88
2019-03-30T06:41:52.486Z,371.25
2019-03-30T06:42:52.476Z,376.88
2019-03-30T06:43:52.474Z,382.50
2019-03-30T06:44:52.542Z,382.50
2019-03-30T06:45:52.441Z,376.88
2019-03-30T06:46:52.433Z,388.12
2019-03-30T06:47:52.420Z,388.12
2019-03-30T06:48:52.429Z,393.75
2019-03-30T06:49:52.397Z,393.75
2019-03-30T06:50:52.388Z,399.38
2019-03-30T06:51:52.379Z,405.00
2019-03-30T06:52:57.974Z,410.62
2019-03-30T06:53:53.360Z,405.00
2019-03-30T06:54:52.343Z,410.62
2019-03-30T06:55:52.333Z,410.62
2019-03-30T06:56:52.321Z,416.25
2019-03-30T06:57:52.311Z,421.88
2019-03-30T06:58:52.309Z,421.88
2019-03-30T06:59:52.287Z,399.38
2019-03-30T07:00:52.278Z,393.75
2019-03-30T07:01:52.267Z,393.75
2019-03-30T07:02:52.254Z,382.50
2019-03-30T07:03:52.258Z,360.00
2019-03-30T07:04:52.233Z,320.62
2019-03-30T07:05:52.222Z,303.75
2019-03-30T07:06:52.209Z,292.50
2019-03-30T07:07:52.200Z,309.38
2019-03-30T07:08:52.221Z,309.38
2019-03-30T07:09:52.179Z,298.12
2019-03-30T07:10:52.165Z,298.12
2019-03-30T07:11:52.156Z,326.25
2019-03-30T07:12:52.143Z,354.38
2019-03-30T07:13:52.141Z,376.88
2019-03-30T07:14:52.130Z,393.75
2019-03-30T07:15:52.111Z,410.62
2019-03-30T07:16:52.104Z,433.12
2019-03-30T07:17:52.098Z,433.12
2019-03-30T07:18:52.080Z,444.38
2019-03-30T07:19:52.080Z,433.12
2019-03-30T07:20:52.059Z,444.38
2019-03-30T07:21:52.047Z,450.00
2019-03-30T07:22:52.037Z,444.38
2019-03-30T07:23:52.023Z,450.00
2019-03-30T07:24:52.021Z,455.62
2019-03-30T07:25:52.011Z,455.62
2019-03-30T07:26:51.991Z,455.62
2019-03-30T07:27:51.982Z,461.25
2019-03-30T07:28:51.971Z,472.50
2019-03-30T07:29:51.965Z,466.88
2019-03-30T07:30:51.947Z,472.50
2019-03-30T07:31:51.939Z,472.50
2019-03-30T07:32:51.928Z,478.12
2019-03-30T07:33:51.920Z,478.12
2019-03-30T07:34:51.932Z,466.88
2019-03-30T07:35:51.896Z,461.25
2019-03-30T07:36:51.881Z,478.12
2019-03-30T07:37:51.870Z,483.75
2019-03-30T07:38:51.859Z,489.38
2019-03-30T07:39:51.856Z,495.00
2019-03-30T07:40:51.838Z,495.00
2019-03-30T07:41:51.827Z,500.62
2019-03-30T07:42:51.824Z,506.25
2019-03-30T07:43:51.805Z,511.88
2019-03-30T07:44:51.804Z,511.88
2019-03-30T07:45:51.783Z,517.50
2019-03-30T07:46:51.772Z,517.50
2019-03-30T07:47:51.764Z,523.12
2019-03-30T07:48:51.753Z,523.12
2019-03-30T07:49:51.745Z,528.75
2019-03-30T07:50:51.727Z,528.75
2019-03-30T07:51:51.718Z,528.75
2019-03-30T07:52:51.704Z,534.38
2019-03-30T07:53:51.694Z,534.38
2019-03-30T07:54:51.690Z,540.00
2019-03-30T07:55:51.672Z,534.38
2019-03-30T07:57:04.151Z,534.38
2019-03-30T07:57:52.687Z,534.38
2019-03-30T07:58:51.646Z,534.38
2019-03-30T07:59:51.638Z,540.00
2019-03-30T08:00:51.621Z,523.12
2019-03-30T08:01:51.607Z,551.25
2019-03-30T08:02:51.594Z,540.00
2019-03-30T08:03:51.584Z,545.62
2019-03-30T08:04:51.583Z,545.62
2019-03-30T08:05:54.238Z,545.62
2019-03-30T08:06:51.551Z,551.25
2019-03-30T08:07:51.548Z,556.88
2019-03-30T08:08:51.530Z,556.88
2019-03-30T08:09:51.556Z,556.88
2019-03-30T08:10:51.507Z,556.88
2019-03-30T08:11:51.497Z,562.50
2019-03-30T08:12:51.485Z,562.50
2019-03-30T08:13:51.474Z,568.12
2019-03-30T08:14:51.469Z,562.50
2019-03-30T08:15:51.461Z,573.75
2019-03-30T08:16:51.440Z,573.75
2019-03-30T08:17:51.430Z,573.75
2019-03-30T08:18:51.420Z,573.75
2019-03-30T08:19:51.407Z,573.75
2019-03-30T08:20:51.405Z,579.38
2019-03-30T08:21:51.400Z,579.38
2019-03-30T08:22:51.375Z,579.38
2019-03-30T08:23:51.363Z,585.00
2019-03-30T08:24:51.367Z,573.75
2019-03-30T08:25:51.349Z,579.38
2019-03-30T08:26:51.331Z,585.00
2019-03-30T08:27:51.320Z,579.38
2019-03-30T08:28:51.310Z,585.00
2019-03-30T08:29:51.303Z,596.25
2019-03-30T08:30:51.298Z,596.25
2019-03-30T08:31:51.275Z,585.00
2019-03-30T08:32:51.264Z,573.75
2019-03-30T08:33:51.255Z,590.62
2019-03-30T08:34:51.248Z,579.38
2019-03-30T08:35:51.240Z,585.00
2019-03-30T08:36:51.225Z,579.38
2019-03-30T08:37:51.211Z,590.62
2019-03-30T08:38:51.202Z,590.62
2019-03-30T08:39:51.191Z,590.62
2019-03-30T08:40:51.186Z,590.62
2019-03-30T08:41:51.171Z,585.00
2019-03-30T08:42:51.157Z,585.00
2019-03-30T08:43:51.149Z,579.38
2019-03-30T08:44:51.135Z,590.62
2019-03-30T08:45:51.135Z,601.88
2019-03-30T08:46:51.122Z,607.50
2019-03-30T08:47:51.100Z,635.62
2019-03-30T08:48:51.089Z,652.50
2019-03-30T08:49:51.079Z,641.25
2019-03-30T08:50:51.078Z,624.38
2019-03-30T08:51:51.058Z,613.12
2019-03-30T08:52:51.045Z,579.38
2019-03-30T08:53:54.687Z,573.75
2019-03-30T08:54:51.026Z,590.62
2019-03-30T08:55:51.028Z,590.62
2019-03-30T08:56:51.004Z,613.12
2019-03-30T08:57:50.992Z,618.75
2019-03-30T08:58:50.981Z,618.75
2019-03-30T08:59:50.977Z,624.38
2019-03-30T09:00:50.967Z,630.00
2019-03-30T09:01:50.950Z,630.00
2019-03-30T09:02:50.950Z,635.62
2019-03-30T09:03:50.925Z,641.25
2019-03-30T09:04:50.915Z,635.62
2019-03-30T09:05:50.921Z,635.62
2019-03-30T09:06:50.895Z,635.62
2019-03-30T09:07:50.881Z,635.62
2019-03-30T09:08:50.905Z,635.62
2019-03-30T09:09:50.863Z,652.50
2019-03-30T09:10:50.858Z,680.62
2019-03-30T09:11:50.837Z,703.12
2019-03-30T09:12:50.827Z,753.75
2019-03-30T09:13:50.817Z,781.88
2019-03-30T09:14:50.807Z,815.62
2019-03-30T09:15:50.832Z,855.00
2019-03-30T09:16:50.782Z,866.25
2019-03-30T09:17:50.772Z,843.75
2019-03-30T09:18:50.768Z,793.12
2019-03-30T09:19:50.750Z,838.12
2019-03-30T09:20:50.744Z,787.50
2019-03-30T09:21:50.737Z,804.38
2019-03-30T09:22:50.717Z,883.12
2019-03-30T09:23:50.723Z,1524.38
2019-03-30T09:24:50.697Z,2390.62
2019-03-30T09:25:50.683Z,2688.75
2019-03-30T09:26:50.694Z,2823.75
2019-03-30T09:27:50.664Z,2874.38
2019-03-30T09:28:50.652Z,3121.88
2019-03-30T09:29:50.644Z,2947.50
2019-03-30T09:30:50.632Z,2925.00
2019-03-30T09:31:50.630Z,2885.62
2019-03-30T09:32:50.611Z,2930.62
2019-03-30T09:33:50.601Z,2790.00
2019-03-30T09:34:50.587Z,2863.12
2019-03-30T09:35:50.575Z,2840.62
2019-03-30T09:36:50.711Z,2919.38
2019-03-30T09:37:50.567Z,2851.88
2019-03-30T09:38:50.562Z,2581.88
2019-03-30T09:39:50.534Z,2289.38
2019-03-30T09:40:50.526Z,2075.62
2019-03-30T09:41:50.520Z,1856.25
2019-03-30T09:42:50.500Z,1620.00
2019-03-30T09:43:50.491Z,1355.62
2019-03-30T09:44:50.480Z,1164.38
2019-03-30T09:45:50.468Z,1057.50
2019-03-30T09:46:50.467Z,1029.38
2019-03-30T09:47:50.453Z,1035.00
2019-03-30T09:48:50.443Z,1125.00
2019-03-30T09:49:50.426Z,1260.00
2019-03-30T09:50:50.417Z,1496.25
2019-03-30T09:51:50.416Z,1726.88
2019-03-30T09:52:50.393Z,2126.25
2019-03-30T09:53:50.388Z,2323.12
2019-03-30T09:54:50.377Z,2604.38
2019-03-30T09:55:50.362Z,2913.75
2019-03-30T09:56:50.368Z,3335.62
2019-03-30T09:57:50.369Z,3605.62
2019-03-30T09:58:50.331Z,3774.38
2019-03-30T09:59:50.321Z,3706.88
2019-03-30T10:00:50.310Z,3892.50
2019-03-30T10:01:50.320Z,3886.88
2019-03-30T10:02:50.290Z,3954.38
2019-03-30T10:03:50.315Z,3982.50
2019-03-30T10:04:50.272Z,4010.62
2019-03-30T10:05:50.277Z,4111.88
2019-03-30T10:06:50.259Z,3768.75
2019-03-30T10:07:50.246Z,2986.88
2019-03-30T10:08:50.226Z,3273.75
2019-03-30T10:09:50.221Z,3538.12
2019-03-30T10:10:50.206Z,3853.12
2019-03-30T10:11:50.206Z,2930.62
2019-03-30T10:12:50.308Z,2064.38
2019-03-30T10:13:50.177Z,2401.88
2019-03-30T10:14:50.166Z,4016.25
2019-03-30T10:15:50.182Z,3875.62
2019-03-30T10:16:50.349Z,3195.00
2019-03-30T10:17:50.797Z,3048.75
2019-03-30T10:18:50.126Z,2913.75
2019-03-30T10:20:03.690Z,2953.12
2019-03-30T10:20:51.100Z,3960.00
2019-03-30T10:21:50.101Z,3690.00
2019-03-30T10:22:50.082Z,3560.62
2019-03-30T10:23:50.070Z,4179.38
2019-03-30T10:24:50.060Z,3791.25
2019-03-30T10:27:06.319Z,4207.50
2019-03-30T10:28:06.262Z,3931.88
2019-03-30T10:29:06.254Z,2880.00
2019-03-30T10:30:06.254Z,3532.50
2019-03-30T10:31:07.970Z,3307.50
2019-03-30T10:32:06.235Z,3380.62
2019-03-30T10:33:06.208Z,2885.62
2019-03-30T10:34:06.200Z,3673.12
2019-03-30T10:35:06.192Z,2958.75
2019-03-30T10:36:06.184Z,2891.25
2019-03-30T10:37:06.194Z,4241.25
2019-03-30T10:38:06.161Z,4438.12
2019-03-30T10:39:06.158Z,3763.12
2019-03-30T10:40:06.154Z,3448.12
2019-03-30T10:41:06.144Z,3825.00
2019-03-30T10:42:06.142Z,4072.50
2019-03-30T10:43:06.165Z,4488.75
2019-03-30T10:44:06.145Z,4550.62
2019-03-30T10:45:06.095Z,4393.12
2019-03-30T10:46:06.086Z,4370.62
2019-03-30T10:47:06.098Z,4691.25
2019-03-30T10:48:06.062Z,4460.62
2019-03-30T10:49:06.056Z,4618.12
2019-03-30T10:50:06.041Z,4528.12
2019-03-30T10:51:06.037Z,4730.62
2019-03-30T10:52:06.045Z,4545.00
2019-03-30T10:53:06.022Z,3836.25
2019-03-30T10:54:06.008Z,4224.38
2019-03-30T10:55:06.022Z,3886.88
2019-03-30T10:56:06.005Z,4443.75
2019-03-30T10:57:05.991Z,3093.75
2019-03-30T10:58:05.963Z,3037.50
2019-03-30T10:59:05.970Z,2604.38
2019-03-30T11:00:06.524Z,2801.25
2019-03-30T11:01:05.941Z,3538.12
2019-03-30T11:02:06.010Z,3397.50
2019-03-30T11:03:05.918Z,4185.00
2019-03-30T11:04:05.921Z,5175.00
2019-03-30T11:05:05.948Z,4961.25
2019-03-30T11:06:05.890Z,5141.25
2019-03-30T11:07:06.063Z,5101.88
2019-03-30T11:08:05.884Z,4775.62
2019-03-30T11:09:05.859Z,5034.38
2019-03-30T11:10:05.848Z,5101.88
2019-03-30T11:11:05.843Z,4725.00
2019-03-30T11:12:05.923Z,4651.88
2019-03-30T11:13:05.835Z,4230.00
2019-03-30T11:14:05.821Z,4213.12
2019-03-30T11:15:05.811Z,3650.62
2019-03-30T11:16:05.824Z,3751.88
2019-03-30T11:17:05.787Z,2340.00
2019-03-30T11:18:05.875Z,916.88
2019-03-30T11:19:05.758Z,1063.12
2019-03-30T11:20:05.768Z,2930.62
2019-03-30T11:21:05.780Z,4882.50
2019-03-30T11:22:05.741Z,5006.25
2019-03-30T11:23:05.737Z,5310.00
2019-03-30T11:24:06.996Z,5287.50
2019-03-30T11:25:08.552Z,3268.12
2019-03-30T11:26:09.493Z,1074.38
2019-03-30T11:27:05.687Z,922.50
2019-03-30T11:28:08.125Z,967.50
2019-03-30T11:29:05.664Z,1276.88
2019-03-30T11:30:05.705Z,2745.00
2019-03-30T11:31:05.773Z,3453.75
2019-03-30T11:32:05.643Z,3262.50
2019-03-30T11:33:06.536Z,4871.25
2019-03-30T11:34:05.626Z,5866.88
2019-03-30T11:35:05.632Z,5310.00
2019-03-30T11:36:05.721Z,4933.12
2019-03-30T11:37:05.653Z,4280.62
2019-03-30T11:38:05.592Z,4753.12
2019-03-30T11:39:05.600Z,3971.25
2019-03-30T11:40:05.593Z,4241.25
2019-03-30T11:41:05.713Z,4860.00
2019-03-30T11:42:05.551Z,5079.38
2019-03-30T11:43:05.748Z,5006.25
2019-03-30T11:44:05.521Z,5079.38
2019-03-30T11:45:05.523Z,5034.38
2019-03-30T11:46:05.506Z,4438.12
2019-03-30T11:47:05.496Z,4505.62
2019-03-30T11:48:06.067Z,4927.50
2019-03-30T11:49:05.488Z,4961.25
2019-03-30T11:50:05.468Z,4629.38
2019-03-30T11:51:05.475Z,4741.88
2019-03-30T11:52:05.450Z,4471.88
2019-03-30T11:53:05.483Z,1946.25
2019-03-30T11:54:05.574Z,804.38
2019-03-30T11:55:05.440Z,798.75
2019-03-30T11:56:05.420Z,793.12
2019-03-30T11:57:05.409Z,1316.25
2019-03-30T11:58:05.404Z,3931.88
2019-03-30T11:59:05.405Z,5158.12
2019-03-30T12:00:05.375Z,4860.00
2019-03-30T12:01:05.372Z,4781.25
2019-03-30T12:02:05.355Z,4854.38
2019-03-30T12:03:05.410Z,4927.50
2019-03-30T12:04:05.349Z,4972.50
2019-03-30T12:05:05.331Z,5056.88
2019-03-30T12:06:05.331Z,5090.62
2019-03-30T12:07:05.311Z,5056.88
2019-03-30T12:08:05.321Z,5045.62
2019-03-30T12:09:05.390Z,5180.62
2019-03-30T12:10:05.381Z,5321.25
2019-03-30T12:11:05.306Z,5220.00
2019-03-30T12:12:05.338Z,5101.88
2019-03-30T12:13:05.258Z,5141.25
2019-03-30T12:14:05.270Z,5028.75
2019-03-30T12:15:05.240Z,5000.62
2019-03-30T12:16:05.259Z,5197.50
2019-03-30T12:17:05.251Z,5130.00
2019-03-30T12:18:05.230Z,5006.25
2019-03-30T12:19:05.248Z,5006.25
2019-03-30T12:20:05.224Z,5130.00
2019-03-30T12:21:05.280Z,5107.50
2019-03-30T12:22:05.184Z,5045.62
2019-03-30T12:23:05.177Z,5107.50
2019-03-30T12:24:05.183Z,4972.50
2019-03-30T12:25:05.157Z,4747.50
2019-03-30T12:26:05.287Z,4826.25
2019-03-30T12:27:05.141Z,4905.00
2019-03-30T12:28:05.136Z,4848.75
2019-03-30T12:29:05.146Z,4741.88
2019-03-30T12:30:05.173Z,4893.75
2019-03-30T12:31:05.116Z,5085.00
2019-03-30T12:32:05.109Z,4995.00
2019-03-30T12:33:05.125Z,4950.00
2019-03-30T12:34:05.230Z,2981.25
2019-03-30T12:35:05.075Z,810.00
2019-03-30T12:36:05.069Z,658.12
2019-03-30T12:37:05.065Z,646.88
2019-03-30T12:38:05.093Z,630.00
2019-03-30T12:39:06.063Z,601.88
2019-03-30T12:40:05.066Z,596.25
2019-03-30T12:41:05.026Z,590.62
2019-03-30T12:42:05.014Z,579.38
2019-03-30T12:43:05.059Z,556.88
2019-03-30T12:44:05.009Z,534.38
2019-03-30T12:45:05.001Z,523.12